• Join FlightAware (Why Join?)
  • Login
  • US Flag 
03:43AM EDT


 

Airport Tracker/Info


-or-


 

Live Flight TrackerFlight Track Log ✈ CES2368 ✈ 22-Sep-2013 ✈ ZUJZ / JZH - ZLXY / XIY

Flight Track Log - Related Links

Times and Time Zones

All times are in EDT time to prevent confusion due to time zone crossing. See the CES2368 flight status page for this flight to view local times or setup timezone preferences in your user account.

Time Position Orientation Groundspeed Altitude Reporting Facility
EDT Latitude Longitude Course Direction KTS MPH feet Rate Location/Type
06:00AM 34.2373 108.0315 68° East  Level Estimated
06:01AM 34.2639 108.1217 70° East  Level Estimated
06:02AM 34.2904 108.2119 70° East  Level Estimated
06:03AM 34.3168 108.3022 70° East  Level Estimated
06:04AM 34.3432 108.3926 71° East  Level Estimated
06:05AM 34.3695 108.4830 71° East  Level Estimated
06:06AM 34.3957 108.5735 71° East  Level Estimated
06:07AM 34.4219 108.6640 71° East  Level Estimated
06:08AM 34.4471 108.7516 71° East  Level Estimated
06:09AM 34.4471 108.7516 121° Southeast  Level Estimated
06:10AM 34.4471 108.7516 121° Southeast  Level Estimated
06:11AM 34.4471 108.7516 121° Southeast  Level Estimated
06:12AM 34.4471 108.7516 121° Southeast  Level Estimated
06:13AM 34.4471 108.7516 121° Southeast  Level Estimated
06:14AM 34.4471 108.7516 121° Southeast  Level Estimated
06:15AM 34.4471 108.7516 121° Southeast  Level Estimated
06:16AM 34.4471 108.7516 121° Southeast  Level Estimated
06:17AM 34.4471 108.7516 121° Southeast  Level Estimated
06:18AM 34.4471 108.7516 121° Southeast  Level Estimated
06:19AM 34.4471 108.7516 121° Southeast  Level Estimated
06:20AM 34.4471 108.7516 121° Southeast  Level Estimated
06:21AM 34.4471 108.7516 121° Southeast  Level Estimated
06:22AM 34.4471 108.7516 121° Southeast  Level Estimated
06:23AM 34.4471 108.7516 121° Southeast  Level Estimated
06:24AM 34.4471 108.7516 121° Southeast  Level Estimated